Time;durP1;ratioP1;P1;durP2;ratioP2;P2;SDS_P1;SDS_P2;PMS_P1;PMS_P2;Temp;Humidity;BMP_temperature;BMP_pressure;BME280_temperature;BME280_humidity;BME280_pressure;Samples;Min_cycle;Max_cycle;Signal;HPM_P1;HPM_P2
2022/06/12 04:24:55;;;;;;;112.88;7.25;;;;;;;13.63;75.61;97115.06;2108522;27;21070;-69
2022/06/12 04:26:08;;;;;;;110.13;8.90;;;;;;;13.74;74.88;97125.03;2107186;28;20203;-80
2022/06/12 05:52:50;;;;;;;93.10;42.90;;;;;;;17.31;64.46;97135.69;2108734;27;20363;-60
2022/06/12 05:53:51;;;;;;;93.45;48.28;;;;;;;17.29;64.30;97121.72;2103430;28;20212;-60
2022/06/12 05:54:53;;;;;;;92.18;47.13;;;;;;;17.37;64.18;97132.66;2101949;28;20195;-60
2022/06/12 05:55:55;;;;;;;94.30;42.90;;;;;;;17.48;64.88;97129.28;2103243;28;20191;-60
2022/06/12 05:56:57;;;;;;;89.82;40.38;;;;;;;17.55;63.80;97133.25;2085419;28;20224;-60
2022/06/12 05:57:58;;;;;;;84.10;37.95;;;;;;;17.75;63.37;97129.28;2081524;28;20743;-60
2022/06/12 05:59:00;;;;;;;84.35;39.67;;;;;;;17.77;63.02;97129.19;2079851;28;20359;-60
2022/06/12 06:00:04;;;;;;;83.25;35.38;;;;;;;18.00;62.96;97130.31;2077573;28;20275;-60
2022/06/12 06:01:11;;;;;;;95.53;50.72;;;;;;;17.87;62.38;97135.53;2078311;28;20193;-60
2022/06/12 06:02:13;;;;;;;84.90;41.25;;;;;;;17.99;62.81;97133.94;2085136;28;20227;-60
2022/06/12 06:03:15;;;;;;;90.03;43.20;;;;;;;17.98;62.92;97132.22;2086603;28;20207;-60
2022/06/12 06:04:16;;;;;;;102.60;66.38;;;;;;;18.13;62.14;97127.69;2086707;28;20330;-60
2022/06/12 06:05:18;;;;;;;136.35;118.88;;;;;;;18.30;61.34;97141.56;2086585;28;20238;-61
2022/06/12 06:06:25;;;;;;;127.60;95.43;;;;;;;18.21;62.01;97145.69;2086448;28;20544;-60
2022/06/12 06:07:34;;;;;;;175.30;158.20;;;;;;;18.37;61.09;97138.41;2074746;28;20239;-60
2022/06/12 06:08:35;;;;;;;173.55;156.70;;;;;;;18.27;61.10;97135.53;2085998;28;20196;-60
2022/06/12 06:09:37;;;;;;;230.30;208.80;;;;;;;18.42;60.46;97135.44;2086666;28;20686;-60
2022/06/12 06:10:39;;;;;;;219.30;198.32;;;;;;;18.53;60.83;97134.72;2086570;28;20208;-60
2022/06/12 06:11:41;;;;;;;213.70;192.30;;;;;;;18.63;60.12;97122.53;2076572;28;20204;-60
2022/06/12 06:12:43;;;;;;;180.77;162.57;;;;;;;18.76;59.60;97141.03;2085699;28;20209;-60
2022/06/12 06:13:45;;;;;;;148.43;132.65;;;;;;;18.48;60.42;97136.84;2085618;28;20199;-61
2022/06/12 06:14:46;;;;;;;186.10;167.60;;;;;;;18.34;60.95;97143.06;2086520;28;20200;-60
2022/06/12 06:15:50;;;;;;;199.52;180.02;;;;;;;18.63;60.34;97142.81;2086569;28;20201;-60
2022/06/12 06:16:51;;;;;;;181.65;163.45;;;;;;;18.77;60.14;97132.97;2076362;28;20200;-60
2022/06/12 06:17:53;;;;;;;174.85;157.20;;;;;;;18.99;59.74;97139.44;2086051;28;20201;-60
2022/06/12 06:18:55;;;;;;;132.05;110.70;;;;;;;19.02;58.92;97141.00;2084717;28;20196;-60
2022/06/12 06:19:56;;;;;;;125.63;99.63;;;;;;;19.13;58.86;97135.81;2085768;28;20192;-60
2022/06/12 06:20:58;;;;;;;143.60;122.72;;;;;;;19.23;58.96;97139.47;2086388;28;20223;-59
2022/06/12 06:21:59;;;;;;;104.60;58.47;;;;;;;19.30;58.43;97139.03;2085953;28;20231;-60
2022/06/12 06:23:01;;;;;;;124.63;89.47;;;;;;;19.33;59.07;97133.53;2086539;28;20647;-60
2022/06/12 06:24:03;;;;;;;97.82;56.65;;;;;;;19.57;57.67;97138.84;2086529;28;20756;-59
2022/06/12 06:25:05;;;;;;;90.18;47.30;;;;;;;19.60;57.14;97145.72;2085950;28;20205;-60
2022/06/12 06:26:07;;;;;;;94.30;48.58;;;;;;;19.67;57.44;97139.84;2086471;28;20204;-61
2022/06/12 06:27:13;;;;;;;92.55;49.05;;;;;;;19.76;57.57;97140.97;2074007;28;20675;-61
2022/06/12 06:28:16;;;;;;;101.07;57.30;;;;;;;19.74;57.65;97125.22;2085662;28;20226;-61
2022/06/12 06:29:18;;;;;;;101.28;52.15;;;;;;;19.84;57.28;97140.44;2077330;28;20193;-59
2022/06/12 06:30:22;;;;;;;92.75;42.20;;;;;;;19.75;57.09;97137.47;2077653;28;20197;-61
2022/06/12 06:31:26;;;;;;;88.38;41.17;;;;;;;19.98;56.92;97140.25;2076209;28;20193;-61
2022/06/12 06:32:28;;;;;;;90.75;45.63;;;;;;;20.07;56.60;97146.66;2067909;28;20236;-61
2022/06/12 06:33:31;;;;;;;89.25;41.92;;;;;;;20.11;56.50;97140.16;2085785;28;20203;-60
2022/06/12 06:34:32;;;;;;;85.22;38.88;;;;;;;20.27;56.15;97139.84;2086193;28;20201;-61
2022/06/12 06:35:35;;;;;;;93.20;51.17;;;;;;;20.34;56.10;97143.72;2086445;28;20203;-60
2022/06/12 06:36:37;;;;;;;91.85;47.90;;;;;;;20.09;56.54;97123.53;2085905;28;20199;-60
2022/06/12 06:37:39;;;;;;;100.55;49.35;;;;;;;19.93;56.68;97110.59;2086270;28;20197;-60
2022/06/12 06:38:42;;;;;;;90.15;44.78;;;;;;;20.25;57.06;97144.41;2086229;28;20193;-61
2022/06/12 06:39:43;;;;;;;90.78;45.20;;;;;;;20.38;56.37;97141.69;2086439;28;20583;-61
2022/06/12 06:40:45;;;;;;;87.40;41.67;;;;;;;20.43;56.29;97141.31;2084583;28;20583;-60
2022/06/12 06:41:47;;;;;;;92.20;47.85;;;;;;;20.48;55.88;97142.66;2076232;28;20204;-60
2022/06/12 06:42:48;;;;;;;98.53;57.10;;;;;;;20.49;55.66;97141.72;2085694;28;20188;-60
2022/06/12 06:46:32;;;;;;;95.15;53.22;;;;;;;20.80;55.46;97143.81;2086147;28;20710;-59
2022/06/12 06:47:35;;;;;;;98.85;58.72;;;;;;;20.85;55.29;97139.81;2075600;28;20274;-59
2022/06/12 06:48:37;;;;;;;102.07;66.43;;;;;;;21.05;54.58;97142.69;2085552;28;20199;-59
2022/06/12 06:49:38;;;;;;;105.47;62.80;;;;;;;21.20;54.10;97146.81;2086107;28;20201;-59
2022/06/12 06:50:41;;;;;;;102.25;58.45;;;;;;;21.15;54.20;97148.13;2084974;28;20200;-58
2022/06/12 06:51:42;;;;;;;96.65;53.97;;;;;;;20.38;56.21;97139.88;2085726;28;20320;-59
2022/06/12 06:52:44;;;;;;;95.63;43.92;;;;;;;20.79;56.09;97156.22;2085990;28;20815;-59
2022/06/12 06:53:45;;;;;;;110.15;64.43;;;;;;;20.97;54.50;97129.22;2086102;28;20201;-58
2022/06/12 06:54:47;;;;;;;102.70;59.08;;;;;;;21.07;54.51;97145.25;2086195;28;20674;-58
2022/06/12 06:55:49;;;;;;;102.57;54.22;;;;;;;21.16;54.84;97148.00;2086076;28;20203;-58
2022/06/12 06:56:51;;;;;;;100.53;58.72;;;;;;;21.44;53.88;97142.28;2075035;28;20208;-59
2022/06/12 06:57:52;;;;;;;98.63;59.50;;;;;;;21.49;54.23;97148.06;2085396;28;20199;-58
2022/06/12 06:58:54;;;;;;;101.28;59.80;;;;;;;21.43;53.96;97140.59;2085663;28;20201;-58
2022/06/12 06:59:55;;;;;;;97.22;51.78;;;;;;;21.39;53.78;97145.31;2086216;28;20185;-59
2022/06/12 07:00:57;;;;;;;100.60;59.20;;;;;;;21.55;54.14;97150.28;2086161;28;20200;-58
2022/06/12 07:01:59;;;;;;;93.82;49.30;;;;;;;21.30;54.07;97152.22;2075880;28;20254;-58
2022/06/12 07:03:01;;;;;;;87.15;34.55;;;;;;;21.40;54.18;97148.81;2085417;28;20318;-59
2022/06/12 07:04:03;;;;;;;84.35;31.13;;;;;;;21.62;53.58;97138.19;2081272;28;20559;-59
2022/06/12 07:05:05;;;;;;;88.35;40.78;;;;;;;21.82;53.24;97125.88;2080663;28;20563;-59
2022/06/12 07:06:13;;;;;;;85.85;33.83;;;;;;;22.14;53.00;97142.78;2080223;28;20201;-59
2022/06/12 07:07:14;;;;;;;90.00;42.83;;;;;;;22.39;52.39;97152.22;2070050;28;20240;-58
2022/06/12 07:08:16;;;;;;;84.13;23.73;;;;;;;22.09;52.01;97153.78;2077740;28;20205;-58
2022/06/12 07:09:18;;;;;;;81.35;19.60;;;;;;;21.82;52.71;97149.81;2071931;28;20209;-59
2022/06/12 07:10:23;;;;;;;74.60;17.85;;;;;;;21.95;52.64;97149.66;2071923;28;20725;-59
2022/06/12 07:11:26;;;;;;;76.80;16.65;;;;;;;22.11;52.31;97153.69;2080291;28;20513;-59
2022/06/12 07:12:28;;;;;;;77.53;18.38;;;;;;;21.96;53.28;97151.31;2079914;28;20225;-59
2022/06/12 07:13:33;;;;;;;92.90;36.80;;;;;;;21.65;53.55;97151.19;2079849;28;20196;-58
2022/06/12 07:14:35;;;;;;;90.75;36.03;;;;;;;21.50;54.15;97144.44;2080557;28;20266;-59
2022/06/12 07:15:37;;;;;;;91.22;42.08;;;;;;;22.00;53.50;97146.59;2080571;28;20193;-59
2022/06/12 07:16:40;;;;;;;88.75;24.50;;;;;;;22.11;52.91;97145.72;2070358;28;20227;-58
2022/06/12 07:17:42;;;;;;;86.13;34.35;;;;;;;22.25;52.91;97155.19;2079794;28;20200;-58
2022/06/12 07:18:44;;;;;;;81.97;27.70;;;;;;;22.33;52.19;97145.59;2079831;28;20743;-58
2022/06/12 07:19:46;;;;;;;78.68;20.77;;;;;;;22.56;52.03;97150.78;2080633;28;20636;-59
2022/06/12 07:20:54;;;;;;;82.47;17.55;;;;;;;22.54;52.06;97149.22;2079881;28;20739;-59
2022/06/12 07:21:56;;;;;;;80.03;21.75;;;;;;;22.76;52.34;97153.56;2070181;28;20225;-59
2022/06/12 07:23:03;;;;;;;80.57;20.13;;;;;;;22.33;52.23;97092.38;2079062;28;20644;-59
2022/06/12 07:24:05;;;;;;;76.32;17.27;;;;;;;22.47;52.84;97151.56;2079092;28;20197;-59
2022/06/12 07:25:09;;;;;;;76.20;15.25;;;;;;;22.52;51.87;97137.88;2080619;28;20197;-59
2022/06/12 07:26:26;;;;;;;79.55;16.20;;;;;;;22.61;51.59;97156.56;2079991;28;20197;-59
2022/06/12 07:27:27;;;;;;;76.60;14.50;;;;;;;22.49;51.60;97149.63;2069575;28;20225;-59
2022/06/12 07:28:29;;;;;;;80.30;15.52;;;;;;;22.66;51.72;97149.03;2079867;28;20619;-59
2022/06/12 07:29:30;;;;;;;75.07;13.05;;;;;;;22.71;51.58;97143.28;2071715;28;20240;-59
2022/06/12 07:30:32;;;;;;;78.63;17.38;;;;;;;22.80;50.88;97146.97;2071807;28;20394;-59
2022/06/12 07:31:33;;;;;;;76.88;12.07;;;;;;;22.99;50.69;97140.91;2080513;28;20200;-59
2022/06/12 07:32:35;;;;;;;78.80;16.85;;;;;;;23.25;50.39;97145.75;2080192;28;20422;-60
2022/06/12 07:33:38;;;;;;;73.90;12.52;;;;;;;23.30;49.64;97152.38;2080502;28;20213;-60
2022/06/12 07:34:39;;;;;;;76.00;18.77;;;;;;;23.39;48.72;97145.41;2080307;28;20197;-59
2022/06/12 07:35:42;;;;;;;74.75;15.23;;;;;;;23.44;49.49;97147.66;2079724;28;20204;-59
2022/06/12 07:36:48;;;;;;;71.57;12.70;;;;;;;23.65;49.59;97147.53;2070292;28;20201;-60
2022/06/12 07:37:49;;;;;;;72.95;10.20;;;;;;;23.81;49.05;97142.50;2078995;28;20490;-60
2022/06/12 07:38:51;;;;;;;78.00;17.35;;;;;;;23.64;48.84;97140.50;2077989;28;20578;-60
2022/06/12 07:40:22;;;;;;;80.90;18.95;;;;;;;23.73;48.14;97133.50;2071706;28;20202;-60
2022/06/12 07:41:24;;;;;;;75.63;19.23;;;;;;;23.73;46.90;97141.50;2072330;28;20197;-60
2022/06/12 07:42:26;;;;;;;73.82;17.77;;;;;;;23.59;45.38;97140.94;2048936;28;20260;-60
2022/06/12 07:43:30;;;;;;;73.88;16.92;;;;;;;23.80;45.77;97135.47;2054889;28;20211;-59
2022/06/12 07:44:35;;;;;;;80.43;21.70;;;;;;;24.02;45.98;97122.03;2069126;28;20205;-59
2022/06/12 07:45:38;;;;;;;74.22;17.30;;;;;;;23.66;45.04;97113.75;2071837;28;20212;-58
2022/06/12 07:46:40;;;;;;;76.88;18.70;;;;;;;23.91;45.53;97125.69;2061825;28;20200;-59
2022/06/12 07:47:42;;;;;;;85.07;23.63;;;;;;;24.06;45.16;97107.44;2074775;28;20197;-59
2022/06/12 07:48:45;;;;;;;77.78;20.42;;;;;;;24.40;45.88;97128.31;2074433;28;20202;-59
2022/06/12 07:49:47;;;;;;;73.65;17.08;;;;;;;24.64;45.04;97135.88;2072040;28;20699;-59
2022/06/12 07:50:51;;;;;;;76.50;19.25;;;;;;;24.02;43.58;97122.88;2071881;28;20201;-58
2022/06/12 07:51:53;;;;;;;76.90;15.32;;;;;;;23.82;45.05;97106.03;2072113;28;20605;-58
2022/06/12 07:52:55;;;;;;;73.53;16.65;;;;;;;24.39;44.98;97121.28;2080492;28;20227;-59
2022/06/12 07:53:57;;;;;;;75.85;16.92;;;;;;;24.75;45.00;97124.19;2080350;28;20275;-58
2022/06/12 07:54:58;;;;;;;73.65;16.75;;;;;;;24.88;43.89;97121.19;2080387;28;20212;-58
2022/06/12 07:56:01;;;;;;;78.63;18.27;;;;;;;24.97;44.11;97119.44;2080300;28;20689;-58
2022/06/12 07:57:04;;;;;;;74.90;16.40;;;;;;;25.18;44.11;97129.88;2065895;28;20214;-58
2022/06/12 07:58:06;;;;;;;80.88;21.45;;;;;;;25.19;43.67;97127.06;2076802;28;20224;-58
2022/06/12 07:59:08;;;;;;;71.50;16.98;;;;;;;25.15;43.56;97127.50;2078485;28;20200;-59
2022/06/12 08:00:13;;;;;;;76.65;21.15;;;;;;;24.75;43.03;97127.69;2079727;28;20197;-58
2022/06/12 08:01:19;;;;;;;80.15;22.10;;;;;;;24.39;42.83;97113.28;2080623;28;20197;-59
2022/06/12 08:02:22;;;;;;;75.60;19.70;;;;;;;24.34;42.93;97094.19;2070611;28;20221;-58
2022/06/12 08:03:25;;;;;;;76.40;21.65;;;;;;;24.29;42.95;97124.00;2080195;28;20189;-58
2022/06/12 08:04:27;;;;;;;72.80;16.08;;;;;;;23.77;44.70;97129.59;2079407;28;20208;-58
2022/06/12 08:05:29;;;;;;;78.53;17.35;;;;;;;23.70;44.06;97096.47;2080276;28;20201;-58
2022/06/12 08:06:31;;;;;;;76.82;19.38;;;;;;;24.40;43.82;97118.47;2077813;28;20379;-58
2022/06/12 08:07:34;;;;;;;86.22;17.35;;;;;;;24.75;43.66;97118.84;2069894;28;20644;-58
2022/06/12 08:08:35;;;;;;;73.65;18.02;;;;;;;24.91;43.65;97128.88;2079805;28;20649;-58
2022/06/12 08:09:37;;;;;;;81.72;21.70;;;;;;;25.08;43.31;97135.28;2071816;28;20201;-58
2022/06/12 08:10:38;;;;;;;73.97;17.00;;;;;;;25.21;42.98;97132.25;2071951;28;20388;-58
2022/06/12 08:11:43;;;;;;;76.70;21.90;;;;;;;24.95;42.53;97132.97;2079814;28;20197;-58
2022/06/12 08:12:47;;;;;;;73.47;20.10;;;;;;;24.60;43.53;97124.59;2080037;28;20197;-58
2022/06/12 08:13:49;;;;;;;74.78;19.27;;;;;;;25.03;42.39;97121.53;2080561;28;20216;-58
2022/06/12 08:14:51;;;;;;;73.75;21.00;;;;;;;25.46;41.59;97122.72;2078924;28;20201;-58
2022/06/12 08:15:53;;;;;;;82.68;22.77;;;;;;;25.04;40.28;97126.72;2079315;28;20229;-59
2022/06/12 08:16:55;;;;;;;79.88;26.23;;;;;;;24.23;41.29;97101.38;2069921;28;20229;-58
2022/06/12 08:17:57;;;;;;;84.47;26.52;;;;;;;24.50;42.30;97123.78;2079511;28;20193;-58
2022/06/12 08:18:59;;;;;;;80.25;26.70;;;;;;;25.10;42.23;97127.94;2076912;28;20378;-58
2022/06/12 08:21:21;;;;;;;77.68;21.75;;;;;;;25.89;41.20;97134.50;2072081;28;20652;-58
2022/06/12 08:22:22;;;;;;;80.65;22.45;;;;;;;26.15;40.43;97131.06;2065932;28;20224;-59
2022/06/12 08:23:33;;;;;;;79.50;27.80;;;;;;;26.31;39.89;97127.69;2074126;28;20219;-59
2022/06/12 08:24:36;;;;;;;81.55;31.85;;;;;;;26.14;39.38;97089.25;2071559;28;20604;-56
2022/06/12 08:25:38;;;;;;;89.95;42.38;;;;;;;26.32;38.70;97128.53;2071906;28;20243;-56
2022/06/12 08:26:40;;;;;;;97.25;61.60;;;;;;;25.34;37.85;97129.25;2062415;28;20193;-56
2022/06/12 08:27:41;;;;;;;105.97;70.97;;;;;;;25.16;38.97;97122.00;2078051;28;20571;-56
2022/06/12 08:28:48;;;;;;;108.28;78.30;;;;;;;25.33;38.64;97114.19;2071128;28;20201;-56
2022/06/12 08:29:49;;;;;;;101.35;64.20;;;;;;;25.78;38.85;97120.53;2071309;28;20202;-55
2022/06/12 08:30:52;;;;;;;99.72;60.28;;;;;;;26.22;39.30;97126.78;2066982;28;20205;-57
2022/06/12 08:31:58;;;;;;;89.32;43.38;;;;;;;25.71;39.90;97122.97;2066795;28;20202;-56
2022/06/12 08:32:59;;;;;;;90.63;46.35;;;;;;;25.62;40.79;97114.03;2071763;28;20241;-56
2022/06/12 08:34:06;;;;;;;97.55;43.72;;;;;;;25.08;39.76;97119.25;2071558;28;20683;-59
2022/06/12 08:35:24;;;;;;;95.88;50.42;;;;;;;24.48;41.31;97119.59;2071442;28;20200;-58
2022/06/12 08:36:27;;;;;;;86.78;33.83;;;;;;;25.21;40.67;97109.03;2071109;28;20656;-58
2022/06/12 08:37:32;;;;;;;89.22;42.70;;;;;;;25.64;39.78;97117.41;2063890;28;20233;-59
2022/06/12 08:38:34;;;;;;;89.85;42.45;;;;;;;25.15;39.95;97114.16;2076252;28;20201;-59
2022/06/12 08:39:35;;;;;;;95.45;41.67;;;;;;;25.48;40.68;97120.72;2071839;28;20206;-58
2022/06/12 08:40:44;;;;;;;86.22;40.80;;;;;;;25.67;40.23;97122.44;2069960;28;20197;-56
2022/06/12 08:41:54;;;;;;;88.78;42.35;;;;;;;25.84;40.25;97118.09;2062786;28;20589;-57
2022/06/12 08:43:02;;;;;;;86.28;32.25;;;;;;;25.69;40.23;97116.94;2079061;28;20678;-58
2022/06/12 08:44:14;;;;;;;83.95;37.10;;;;;;;26.18;39.88;97122.75;2075753;28;20194;-59
2022/06/12 08:45:21;;;;;;;89.38;43.58;;;;;;;26.45;39.18;97118.25;2071785;28;20213;-59
2022/06/12 08:46:32;;;;;;;89.10;46.72;;;;;;;26.29;38.82;97120.81;2072804;28;20208;-59
2022/06/12 08:47:42;;;;;;;94.72;49.30;;;;;;;26.33;38.90;97127.53;2068163;28;20248;-59
2022/06/12 08:48:57;;;;;;;94.38;54.88;;;;;;;26.39;37.95;97118.88;2077172;28;20663;-59
2022/06/12 08:50:42;;;;;;;89.82;46.05;;;;;;;26.12;38.06;97115.34;2071400;28;20659;-59
2022/06/12 08:52:09;;;;;;;87.63;37.28;;;;;;;26.24;38.22;97111.44;2057683;28;20209;-59
2022/06/12 08:53:32;;;;;;;90.05;45.75;;;;;;;26.31;38.35;97113.47;2063292;28;20199;-59
2022/06/12 08:54:40;;;;;;;92.57;52.17;;;;;;;26.46;38.53;97113.75;2063608;28;20198;-59
2022/06/12 08:55:49;;;;;;;99.65;62.88;;;;;;;26.80;38.39;97107.59;2063130;28;20194;-59
2022/06/12 08:56:56;;;;;;;97.47;61.55;;;;;;;26.66;38.32;97103.66;2053005;28;20210;-59
2022/06/12 08:58:25;;;;;;;103.22;68.93;;;;;;;26.96;39.16;97101.50;2062709;28;20202;-60
2022/06/12 08:59:35;;;;;;;99.00;60.83;;;;;;;26.79;38.65;97101.44;2063642;28;20553;-60
2022/06/12 09:00:38;;;;;;;112.03;74.40;;;;;;;26.83;38.64;97086.72;2063337;28;20198;-59
2022/06/12 09:01:42;;;;;;;124.05;100.35;;;;;;;27.00;38.12;97103.69;2053381;28;20217;-59
2022/06/12 09:02:44;;;;;;;120.57;102.13;;;;;;;27.26;37.89;97099.25;2061855;28;20194;-59
2022/06/12 09:03:50;;;;;;;128.35;113.25;;;;;;;27.22;37.43;97101.41;2063045;28;20527;-59
2022/06/12 09:04:53;;;;;;;126.50;111.13;;;;;;;27.35;37.65;97091.06;2062097;28;20302;-59
2022/06/12 09:06:23;;;;;;;122.78;108.63;;;;;;;27.50;37.50;97095.81;2063668;28;20587;-60
2022/06/12 09:07:36;;;;;;;110.07;78.55;;;;;;;27.99;36.98;97095.03;2032740;28;20311;-59
2022/06/12 09:09:08;;;;;;;110.25;90.40;;;;;;;27.94;37.17;97092.84;2054974;28;20213;-60
2022/06/12 09:10:23;;;;;;;108.63;80.75;;;;;;;27.91;37.68;97093.19;2054489;28;20199;-59
2022/06/12 09:11:40;;;;;;;118.30;97.90;;;;;;;28.38;36.25;97091.69;2056813;28;20205;-59
2022/06/12 09:12:51;;;;;;;123.25;109.22;;;;;;;28.38;36.17;97102.44;2063213;28;20445;-59
2022/06/12 09:14:18;;;;;;;129.13;114.93;;;;;;;28.30;36.89;97099.75;2063448;28;20194;-59
2022/06/12 09:15:32;;;;;;;117.47;101.53;;;;;;;28.31;36.43;97106.78;2063385;28;20580;-58
2022/06/12 09:17:07;;;;;;;127.82;104.55;;;;;;;28.11;36.97;97095.56;2063050;28;20208;-59
2022/06/12 09:18:19;;;;;;;118.22;98.85;;;;;;;28.55;36.59;97100.53;2070616;28;20244;-59
2022/06/12 09:19:27;;;;;;;112.20;85.97;;;;;;;27.68;36.42;97095.69;2071436;28;20212;-59
2022/06/12 09:20:43;;;;;;;124.45;110.82;;;;;;;27.78;37.51;97095.53;2071428;28;20194;-59
2022/06/12 09:22:12;;;;;;;132.77;118.35;;;;;;;28.23;36.69;97090.72;2060648;28;20205;-59
2022/06/12 09:23:31;;;;;;;124.85;105.47;;;;;;;28.42;36.94;97097.56;2069052;28;20622;-59
2022/06/12 09:24:48;;;;;;;105.95;80.25;;;;;;;27.09;37.01;97090.31;2071399;28;20665;-59
2022/06/12 09:26:10;;;;;;;122.78;97.85;;;;;;;27.15;38.08;97093.19;2070772;28;20541;-59
2022/06/12 09:27:31;;;;;;;125.13;104.15;;;;;;;27.67;37.52;97096.72;2060134;28;20557;-59
2022/06/12 09:29:21;;;;;;;120.15;104.30;;;;;;;28.07;37.04;97095.06;2070809;28;20194;-59
2022/06/12 09:30:40;;;;;;;114.93;93.50;;;;;;;27.98;36.02;97079.94;2038280;29;20212;-59
2022/06/12 09:31:51;;;;;;;122.68;100.35;;;;;;;28.24;37.55;97093.22;2045047;28;20206;-59
2022/06/12 09:33:22;;;;;;;129.60;115.35;;;;;;;28.69;36.25;97092.84;2070292;28;20205;-60
2022/06/12 09:34:35;;;;;;;116.30;96.50;;;;;;;28.43;35.76;97094.69;2071275;28;20214;-62
2022/06/12 09:35:54;;;;;;;116.88;90.10;;;;;;;28.01;36.89;97085.81;2070248;28;20198;-62
2022/06/12 09:36:58;;;;;;;118.30;96.47;;;;;;;27.42;37.45;97090.47;2059212;28;20215;-59
2022/06/12 09:38:18;;;;;;;113.15;89.30;;;;;;;25.52;39.48;97071.34;2063210;28;20202;-60
2022/06/12 09:39:47;;;;;;;111.45;85.05;;;;;;;26.82;38.08;97086.88;2070456;28;20620;-59
2022/06/12 09:41:10;;;;;;;107.93;80.85;;;;;;;27.77;36.88;97085.78;2071240;28;20193;-60
2022/06/12 09:42:17;;;;;;;108.20;84.75;;;;;;;28.43;35.90;97085.78;2061256;28;20229;-60
2022/06/12 09:43:36;;;;;;;119.78;90.05;;;;;;;27.65;36.29;97077.25;2069339;28;20209;-60
2022/06/12 09:44:57;;;;;;;117.35;85.30;;;;;;;26.14;38.24;97083.06;2070318;28;20415;-60
2022/06/12 09:46:33;;;;;;;108.90;81.22;;;;;;;26.59;38.21;97079.34;2071067;28;20186;-60
2022/06/12 09:47:47;;;;;;;101.20;62.90;;;;;;;25.56;39.55;97075.38;2070984;28;20725;-60
2022/06/12 09:48:54;;;;;;;101.55;67.63;;;;;;;26.48;38.41;97072.41;2071418;28;20202;-60
2022/06/12 09:50:05;;;;;;;102.30;68.93;;;;;;;27.52;36.98;97075.88;2071110;28;20197;-60
2022/06/12 09:51:32;;;;;;;108.63;77.22;;;;;;;28.11;36.02;97074.94;2071005;28;20205;-60
2022/06/12 09:52:52;;;;;;;102.88;69.00;;;;;;;28.81;35.60;97080.69;2066639;28;20233;-60
2022/06/12 09:54:05;;;;;;;108.15;72.38;;;;;;;27.97;36.52;97072.91;2076885;28;20546;-59
2022/06/12 09:55:19;;;;;;;111.78;88.30;;;;;;;27.40;36.91;97066.50;2071299;28;20193;-61
2022/06/12 09:56:31;;;;;;;112.57;90.30;;;;;;;28.09;35.75;97054.66;2071376;28;20212;-61
2022/06/12 09:57:40;;;;;;;114.50;92.53;;;;;;;29.03;34.15;97075.56;2066302;28;20367;-61
2022/06/12 09:59:01;;;;;;;111.10;84.85;;;;;;;28.92;34.04;97071.41;2078441;28;20193;-61
2022/06/12 10:00:08;;;;;;;126.40;106.30;;;;;;;28.54;35.37;97072.00;2070524;28;20716;-60
2022/06/12 10:01:25;;;;;;;122.05;98.78;;;;;;;28.42;36.18;97063.50;2071692;28;20744;-60
2022/06/12 10:02:35;;;;;;;111.93;83.65;;;;;;;28.16;35.90;97045.75;2063138;28;20221;-61
2022/06/12 10:03:40;;;;;;;102.15;69.63;;;;;;;27.95;36.43;97067.69;2073191;28;20197;-62
2022/06/12 10:04:51;;;;;;;102.55;66.88;;;;;;;27.68;35.99;97071.53;2071466;28;20510;-62
2022/06/12 10:05:56;;;;;;;93.40;58.17;;;;;;;27.61;36.14;97067.88;2071185;28;20256;-62
2022/06/12 10:07:03;;;;;;;101.10;61.78;;;;;;;27.72;36.09;97062.19;2070609;28;20221;-62
2022/06/12 10:08:18;;;;;;;101.80;70.65;;;;;;;28.06;35.39;97069.25;2070925;28;20198;-62
2022/06/12 10:09:42;;;;;;;86.07;46.08;;;;;;;27.83;34.75;97066.34;2071287;28;20667;-62
2022/06/12 10:10:53;;;;;;;87.38;47.20;;;;;;;28.14;34.25;97066.56;2071338;28;20194;-61
2022/06/12 10:12:03;;;;;;;93.07;53.75;;;;;;;28.38;33.39;97067.53;2063280;28;20197;-61
2022/06/12 10:13:12;;;;;;;88.30;48.72;;;;;;;28.46;33.90;97072.88;2070619;28;20673;-64
2022/06/12 10:14:31;;;;;;;90.03;47.90;;;;;;;28.53;34.22;97056.91;2069971;28;20252;-61
2022/06/12 10:15:40;;;;;;;87.15;51.00;;;;;;;28.59;34.14;97068.81;2071532;28;20202;-61
2022/06/12 10:17:02;;;;;;;88.22;44.75;;;;;;;28.44;34.02;97060.63;2062005;28;20501;-61
2022/06/12 10:18:42;;;;;;;100.20;60.17;;;;;;;27.00;36.13;97062.66;2078258;28;20201;-61
2022/06/12 10:20:04;;;;;;;96.20;61.47;;;;;;;27.32;35.53;97058.38;2070872;28;20197;-61
2022/06/12 10:21:17;;;;;;;97.40;60.85;;;;;;;28.03;34.91;97059.66;2070195;28;20552;-61
2022/06/12 10:22:34;;;;;;;94.65;59.35;;;;;;;27.07;36.20;97058.34;2066795;28;20253;-61
2022/06/12 10:23:36;;;;;;;102.03;70.25;;;;;;;27.07;36.56;97046.75;2077893;28;20224;-61
2022/06/12 10:24:37;;;;;;;103.70;73.95;;;;;;;27.65;35.47;97034.34;2070613;28;20653;-61
2022/06/12 10:25:48;;;;;;;102.95;69.78;;;;;;;28.05;35.09;97061.34;2071326;28;20661;-61
2022/06/12 10:27:03;;;;;;;102.13;67.53;;;;;;;28.56;34.82;97053.88;2070610;28;20198;-61
2022/06/12 10:28:30;;;;;;;103.10;60.80;;;;;;;27.11;36.00;97050.78;2071427;28;20533;-61
2022/06/12 10:29:47;;;;;;;103.40;70.57;;;;;;;27.47;35.77;97056.78;2071082;28;20204;-61
2022/06/12 10:31:10;;;;;;;104.10;75.53;;;;;;;27.71;34.89;97049.75;2070504;28;20193;-61
2022/06/12 10:32:21;;;;;;;104.95;78.75;;;;;;;28.00;35.32;97040.38;2061231;28;20224;-62
2022/06/12 10:33:30;;;;;;;105.53;78.78;;;;;;;28.47;35.40;97055.75;2075050;28;20288;-61
2022/06/12 10:34:33;;;;;;;105.32;79.75;;;;;;;28.84;34.89;97050.81;2071568;28;20380;-61
2022/06/12 10:35:50;;;;;;;111.50;82.68;;;;;;;29.26;34.68;97051.44;2070388;28;20313;-62
2022/06/12 10:36:51;;;;;;;104.70;75.57;;;;;;;29.66;33.90;97052.19;2061412;28;20205;-61
2022/06/12 10:38:04;;;;;;;100.05;68.18;;;;;;;30.23;32.97;97029.38;2076117;28;20198;-62
2022/06/12 10:39:13;;;;;;;89.30;50.58;;;;;;;30.60;31.70;97041.13;2073812;28;20194;-62
2022/06/12 10:40:23;;;;;;;81.38;38.88;;;;;;;30.78;31.42;97037.22;2072774;28;20201;-62
2022/06/12 10:41:28;;;;;;;84.38;40.33;;;;;;;30.84;31.49;97041.00;2072378;28;20205;-62
2022/06/12 10:42:39;;;;;;;81.03;39.53;;;;;;;30.78;31.69;97016.47;2069622;28;20232;-61
2022/06/12 10:43:47;;;;;;;82.57;43.37;;;;;;;29.18;32.21;97030.81;2079221;28;20520;-62
2022/06/12 10:44:57;;;;;;;88.23;46.47;;;;;;;28.87;33.09;97031.63;2071912;28;20941;-62
2022/06/12 10:46:15;;;;;;;80.57;37.77;;;;;;;27.91;35.25;97028.81;2072301;28;20423;-62
2022/06/12 10:47:26;;;;;;;80.73;39.60;;;;;;;28.32;34.29;97019.88;2072273;28;20467;-62
2022/06/12 10:48:31;;;;;;;79.60;39.90;;;;;;;28.13;35.02;97021.09;2072104;28;20941;-62
2022/06/12 10:49:33;;;;;;;81.88;39.08;;;;;;;28.79;33.70;97031.69;2071540;28;20427;-62
2022/06/12 10:50:47;;;;;;;86.65;41.17;;;;;;;27.15;35.74;97022.69;2072689;28;20210;-62
2022/06/12 10:52:13;;;;;;;80.18;37.40;;;;;;;28.11;35.43;97012.38;2061912;28;20216;-62
2022/06/12 10:53:17;;;;;;;84.55;44.38;;;;;;;28.44;35.51;97018.50;2074326;28;20288;-62
2022/06/12 10:54:26;;;;;;;88.28;38.08;;;;;;;28.45;35.27;97025.53;2073691;28;20236;-62
2022/06/12 10:55:51;;;;;;;98.17;61.27;;;;;;;28.67;35.81;97026.69;2072507;28;20299;-62
2022/06/12 10:57:25;;;;;;;105.30;63.97;;;;;;;28.49;36.42;97026.88;2062333;28;20451;-61
2022/06/12 10:58:51;;;;;;;91.15;51.08;;;;;;;28.34;36.05;97029.44;2074514;28;20430;-61
2022/06/12 11:00:09;;;;;;;111.75;72.03;;;;;;;28.18;36.15;96965.88;2072744;28;20209;-62
2022/06/12 11:01:24;;;;;;;86.63;40.77;;;;;;;29.11;33.97;97025.28;2072763;28;20569;-62
2022/06/12 11:02:55;;;;;;;87.40;42.42;;;;;;;29.09;34.87;97024.66;2068085;28;20470;-61
2022/06/12 11:04:23;;;;;;;86.10;44.33;;;;;;;29.49;33.62;97025.41;2077607;28;20553;-62
2022/06/12 11:05:49;;;;;;;81.67;37.63;;;;;;;30.00;33.40;97020.50;2070236;28;20930;-61
2022/06/12 11:06:59;;;;;;;86.93;46.13;;;;;;;30.44;33.00;97017.84;2071991;28;20454;-61